sensor_id;sensor_type;location;lat;lon;timestamp;temperature;humidity
26954;DHT22;14508;50.924;11.600;2023-01-28T00:01:55;2.70;99.90
26954;DHT22;14508;50.924;11.600;2023-01-28T00:04:24;2.60;99.90
26954;DHT22;14508;50.924;11.600;2023-01-28T00:06:52;2.70;99.90
26954;DHT22;14508;50.924;11.600;2023-01-28T00:09:20;2.70;99.90
26954;DHT22;14508;50.924;11.600;2023-01-28T00:11:48;2.70;99.90
26954;DHT22;14508;50.924;11.600;2023-01-28T00:14:17;2.70;99.90
26954;DHT22;14508;50.924;11.600;2023-01-28T00:16:45;2.70;99.90
26954;DHT22;14508;50.924;11.600;2023-01-28T00:19:13;2.70;99.90
26954;DHT22;14508;50.924;11.600;2023-01-28T00:21:42;2.70;99.90
26954;DHT22;14508;50.924;11.600;2023-01-28T00:24:10;2.70;99.90
26954;DHT22;14508;50.924;11.600;2023-01-28T00:26:38;2.60;99.90
26954;DHT22;14508;50.924;11.600;2023-01-28T00:29:05;2.70;99.90
26954;DHT22;14508;50.924;11.600;2023-01-28T00:31:35;2.60;99.90
26954;DHT22;14508;50.924;11.600;2023-01-28T00:34:03;2.70;99.90
26954;DHT22;14508;50.924;11.600;2023-01-28T00:36:31;2.70;99.90
26954;DHT22;14508;50.924;11.600;2023-01-28T00:39:00;2.70;99.90
26954;DHT22;14508;50.924;11.600;2023-01-28T00:41:29;2.60;99.90
26954;DHT22;14508;50.924;11.600;2023-01-28T00:43:57;2.60;99.90
26954;DHT22;14508;50.924;11.600;2023-01-28T00:46:25;2.60;99.90
26954;DHT22;14508;50.924;11.600;2023-01-28T00:48:54;2.60;99.90
26954;DHT22;14508;50.924;11.600;2023-01-28T00:51:22;2.60;99.90
26954;DHT22;14508;50.924;11.600;2023-01-28T00:53:49;2.60;99.90
26954;DHT22;14508;50.924;11.600;2023-01-28T00:56:19;2.50;99.90
26954;DHT22;14508;50.924;11.600;2023-01-28T00:58:48;2.40;99.90
26954;DHT22;14508;50.924;11.600;2023-01-28T01:01:17;2.50;99.90
26954;DHT22;14508;50.924;11.600;2023-01-28T01:03:45;2.50;99.90
26954;DHT22;14508;50.924;11.600;2023-01-28T01:06:15;2.40;99.90
26954;DHT22;14508;50.924;11.600;2023-01-28T01:08:43;2.40;99.90
26954;DHT22;14508;50.924;11.600;2023-01-28T01:11:17;2.40;99.90
26954;DHT22;14508;50.924;11.600;2023-01-28T01:13:51;2.40;99.90
26954;DHT22;14508;50.924;11.600;2023-01-28T01:16:21;2.40;99.90
26954;DHT22;14508;50.924;11.600;2023-01-28T01:18:50;2.40;99.90
26954;DHT22;14508;50.924;11.600;2023-01-28T01:21:20;2.40;99.90
26954;DHT22;14508;50.924;11.600;2023-01-28T01:23:49;2.50;99.90
26954;DHT22;14508;50.924;11.600;2023-01-28T01:26:17;2.50;99.90
26954;DHT22;14508;50.924;11.600;2023-01-28T01:28:45;2.50;99.90
26954;DHT22;14508;50.924;11.600;2023-01-28T01:31:16;2.40;99.90
26954;DHT22;14508;50.924;11.600;2023-01-28T01:33:45;2.50;99.90
26954;DHT22;14508;50.924;11.600;2023-01-28T01:36:15;2.40;99.90
26954;DHT22;14508;50.924;11.600;2023-01-28T01:38:44;2.40;99.90
26954;DHT22;14508;50.924;11.600;2023-01-28T01:41:21;2.40;99.90
26954;DHT22;14508;50.924;11.600;2023-01-28T01:43:51;2.40;99.90
26954;DHT22;14508;50.924;11.600;2023-01-28T01:46:24;2.40;99.90
26954;DHT22;14508;50.924;11.600;2023-01-28T01:48:54;2.40;99.90
26954;DHT22;14508;50.924;11.600;2023-01-28T01:51:27;2.40;99.90
26954;DHT22;14508;50.924;11.600;2023-01-28T01:53:57;2.40;99.90
26954;DHT22;14508;50.924;11.600;2023-01-28T01:56:31;2.40;99.90
26954;DHT22;14508;50.924;11.600;2023-01-28T01:59:00;2.50;99.90
26954;DHT22;14508;50.924;11.600;2023-01-28T02:01:32;2.40;99.90
26954;DHT22;14508;50.924;11.600;2023-01-28T02:04:04;2.40;99.90
26954;DHT22;14508;50.924;11.600;2023-01-28T02:06:33;2.50;99.90
26954;DHT22;14508;50.924;11.600;2023-01-28T02:09:06;2.50;99.90
26954;DHT22;14508;50.924;11.600;2023-01-28T02:11:34;2.40;99.90
26954;DHT22;14508;50.924;11.600;2023-01-28T02:14:04;2.40;99.90
26954;DHT22;14508;50.924;11.600;2023-01-28T02:16:34;2.40;99.90
26954;DHT22;14508;50.924;11.600;2023-01-28T02:19:02;2.50;99.90
26954;DHT22;14508;50.924;11.600;2023-01-28T02:21:57;2.50;99.90
26954;DHT22;14508;50.924;11.600;2023-01-28T02:25:00;2.40;99.90
26954;DHT22;14508;50.924;11.600;2023-01-28T02:27:54;2.40;99.90
26954;DHT22;14508;50.924;11.600;2023-01-28T02:30:28;2.40;99.90
26954;DHT22;14508;50.924;11.600;2023-01-28T02:33:03;2.40;99.90
26954;DHT22;14508;50.924;11.600;2023-01-28T02:35:38;2.40;99.90
26954;DHT22;14508;50.924;11.600;2023-01-28T02:38:10;2.40;99.90
26954;DHT22;14508;50.924;11.600;2023-01-28T02:40:41;2.40;99.90
26954;DHT22;14508;50.924;11.600;2023-01-28T02:43:35;2.40;99.90
26954;DHT22;14508;50.924;11.600;2023-01-28T02:46:13;2.40;99.90
26954;DHT22;14508;50.924;11.600;2023-01-28T02:49:01;2.40;99.90
26954;DHT22;14508;50.924;11.600;2023-01-28T02:51:38;2.40;99.90
26954;DHT22;14508;50.924;11.600;2023-01-28T02:54:12;2.50;99.90
26954;DHT22;14508;50.924;11.600;2023-01-28T02:56:48;2.40;99.90
26954;DHT22;14508;50.924;11.600;2023-01-28T02:59:25;2.40;99.90
26954;DHT22;14508;50.924;11.600;2023-01-28T03:02:06;2.40;99.90
26954;DHT22;14508;50.924;11.600;2023-01-28T03:04:38;2.40;99.90
26954;DHT22;14508;50.924;11.600;2023-01-28T03:07:08;2.40;99.90
26954;DHT22;14508;50.924;11.600;2023-01-28T03:09:38;2.40;99.90
26954;DHT22;14508;50.924;11.600;2023-01-28T03:12:10;2.50;99.90
26954;DHT22;14508;50.924;11.600;2023-01-28T03:14:59;2.40;99.90
26954;DHT22;14508;50.924;11.600;2023-01-28T03:17:52;2.40;99.90
26954;DHT22;14508;50.924;11.600;2023-01-28T03:20:44;2.40;99.90
26954;DHT22;14508;50.924;11.600;2023-01-28T03:23:36;2.50;99.90
26954;DHT22;14508;50.924;11.600;2023-01-28T03:26:24;2.50;99.90
26954;DHT22;14508;50.924;11.600;2023-01-28T03:29:13;2.50;99.90
26954;DHT22;14508;50.924;11.600;2023-01-28T03:32:06;2.50;99.90
26954;DHT22;14508;50.924;11.600;2023-01-28T03:34:52;2.50;99.90
26954;DHT22;14508;50.924;11.600;2023-01-28T03:37:38;2.40;99.90
26954;DHT22;14508;50.924;11.600;2023-01-28T03:40:26;2.40;99.90
26954;DHT22;14508;50.924;11.600;2023-01-28T03:42:54;2.30;99.90
26954;DHT22;14508;50.924;11.600;2023-01-28T03:45:32;2.40;99.90
26954;DHT22;14508;50.924;11.600;2023-01-28T03:48:04;2.40;99.90
26954;DHT22;14508;50.924;11.600;2023-01-28T03:50:32;2.30;99.90
26954;DHT22;14508;50.924;11.600;2023-01-28T03:53:01;2.30;99.90
26954;DHT22;14508;50.924;11.600;2023-01-28T03:55:49;2.30;99.90
26954;DHT22;14508;50.924;11.600;2023-01-28T03:58:17;2.40;99.90
26954;DHT22;14508;50.924;11.600;2023-01-28T04:00:45;2.40;99.90
26954;DHT22;14508;50.924;11.600;2023-01-28T04:03:16;2.20;99.90
26954;DHT22;14508;50.924;11.600;2023-01-28T04:05:57;2.20;99.90
26954;DHT22;14508;50.924;11.600;2023-01-28T04:08:37;2.20;99.90
26954;DHT22;14508;50.924;11.600;2023-01-28T04:11:26;2.20;99.90
26954;DHT22;14508;50.924;11.600;2023-01-28T04:13:55;2.10;99.90
26954;DHT22;14508;50.924;11.600;2023-01-28T04:16:25;2.10;99.90
26954;DHT22;14508;50.924;11.600;2023-01-28T04:18:55;2.10;99.90
26954;DHT22;14508;50.924;11.600;2023-01-28T04:21:23;2.10;99.90
26954;DHT22;14508;50.924;11.600;2023-01-28T04:23:51;2.10;99.90
26954;DHT22;14508;50.924;11.600;2023-01-28T04:26:19;2.10;99.90
26954;DHT22;14508;50.924;11.600;2023-01-28T04:28:47;2.10;99.90
26954;DHT22;14508;50.924;11.600;2023-01-28T04:31:15;2.10;99.90
26954;DHT22;14508;50.924;11.600;2023-01-28T04:34:09;2.10;99.90
26954;DHT22;14508;50.924;11.600;2023-01-28T04:36:46;2.10;99.90
26954;DHT22;14508;50.924;11.600;2023-01-28T04:39:38;2.10;99.90
26954;DHT22;14508;50.924;11.600;2023-01-28T04:42:19;2.10;99.90
26954;DHT22;14508;50.924;11.600;2023-01-28T04:45:00;2.00;99.90
26954;DHT22;14508;50.924;11.600;2023-01-28T04:47:48;2.00;99.90
26954;DHT22;14508;50.924;11.600;2023-01-28T04:50:30;2.00;99.90
26954;DHT22;14508;50.924;11.600;2023-01-28T04:53:16;2.00;99.90
26954;DHT22;14508;50.924;11.600;2023-01-28T04:55:53;2.00;99.90
26954;DHT22;14508;50.924;11.600;2023-01-28T04:58:22;2.00;99.90
26954;DHT22;14508;50.924;11.600;2023-01-28T05:00:54;2.10;99.90
26954;DHT22;14508;50.924;11.600;2023-01-28T05:03:23;2.10;99.90
26954;DHT22;14508;50.924;11.600;2023-01-28T05:05:53;2.10;99.90
26954;DHT22;14508;50.924;11.600;2023-01-28T05:08:31;2.00;99.90
26954;DHT22;14508;50.924;11.600;2023-01-28T05:11:00;2.10;99.90
26954;DHT22;14508;50.924;11.600;2023-01-28T05:13:28;2.10;99.90
26954;DHT22;14508;50.924;11.600;2023-01-28T05:15:56;2.10;99.90
26954;DHT22;14508;50.924;11.600;2023-01-28T05:18:26;2.20;99.90
26954;DHT22;14508;50.924;11.600;2023-01-28T05:21:15;2.20;99.90
26954;DHT22;14508;50.924;11.600;2023-01-28T05:23:46;2.20;99.90
26954;DHT22;14508;50.924;11.600;2023-01-28T05:26:14;2.20;99.90
26954;DHT22;14508;50.924;11.600;2023-01-28T05:28:43;2.10;99.90
26954;DHT22;14508;50.924;11.600;2023-01-28T05:31:11;2.10;99.90
26954;DHT22;14508;50.924;11.600;2023-01-28T05:33:39;2.00;99.90
26954;DHT22;14508;50.924;11.600;2023-01-28T05:36:10;2.00;99.90
26954;DHT22;14508;50.924;11.600;2023-01-28T05:38:40;2.00;99.90
26954;DHT22;14508;50.924;11.600;2023-01-28T05:41:08;2.00;99.90
26954;DHT22;14508;50.924;11.600;2023-01-28T05:43:36;2.00;99.90
26954;DHT22;14508;50.924;11.600;2023-01-28T05:46:27;2.00;99.90
26954;DHT22;14508;50.924;11.600;2023-01-28T05:49:05;1.90;99.90
26954;DHT22;14508;50.924;11.600;2023-01-28T05:51:53;2.00;99.90
26954;DHT22;14508;50.924;11.600;2023-01-28T05:54:23;2.00;99.90
26954;DHT22;14508;50.924;11.600;2023-01-28T05:56:52;2.00;99.90
26954;DHT22;14508;50.924;11.600;2023-01-28T05:59:21;2.00;99.90
26954;DHT22;14508;50.924;11.600;2023-01-28T06:01:51;2.00;99.90
26954;DHT22;14508;50.924;11.600;2023-01-28T06:04:22;2.00;99.90
26954;DHT22;14508;50.924;11.600;2023-01-28T06:06:51;2.00;99.90
26954;DHT22;14508;50.924;11.600;2023-01-28T06:09:19;2.00;99.90
26954;DHT22;14508;50.924;11.600;2023-01-28T06:11:50;2.00;99.90
26954;DHT22;14508;50.924;11.600;2023-01-28T06:14:18;1.90;99.90
26954;DHT22;14508;50.924;11.600;2023-01-28T06:17:09;1.90;99.90
26954;DHT22;14508;50.924;11.600;2023-01-28T06:19:46;1.90;99.90
26954;DHT22;14508;50.924;11.600;2023-01-28T06:22:15;2.00;99.90
26954;DHT22;14508;50.924;11.600;2023-01-28T06:24:43;2.00;99.90
26954;DHT22;14508;50.924;11.600;2023-01-28T06:27:12;2.00;99.90
26954;DHT22;14508;50.924;11.600;2023-01-28T06:29:39;2.00;99.90
26954;DHT22;14508;50.924;11.600;2023-01-28T06:32:07;1.90;99.90
26954;DHT22;14508;50.924;11.600;2023-01-28T06:34:35;1.90;99.90
26954;DHT22;14508;50.924;11.600;2023-01-28T06:37:03;1.90;99.90
26954;DHT22;14508;50.924;11.600;2023-01-28T06:39:31;1.90;99.90
26954;DHT22;14508;50.924;11.600;2023-01-28T06:41:59;1.90;99.90
26954;DHT22;14508;50.924;11.600;2023-01-28T06:44:28;1.90;99.90
26954;DHT22;14508;50.924;11.600;2023-01-28T06:46:56;1.90;99.90
26954;DHT22;14508;50.924;11.600;2023-01-28T06:49:24;1.90;99.90
26954;DHT22;14508;50.924;11.600;2023-01-28T06:51:52;1.90;99.90
26954;DHT22;14508;50.924;11.600;2023-01-28T06:54:20;1.90;99.90
26954;DHT22;14508;50.924;11.600;2023-01-28T06:56:48;1.90;99.90
26954;DHT22;14508;50.924;11.600;2023-01-28T06:59:16;1.90;99.90
26954;DHT22;14508;50.924;11.600;2023-01-28T07:01:45;2.00;99.90
26954;DHT22;14508;50.924;11.600;2023-01-28T07:04:13;2.00;99.90
26954;DHT22;14508;50.924;11.600;2023-01-28T07:06:41;1.90;99.90
26954;DHT22;14508;50.924;11.600;2023-01-28T07:09:09;1.90;99.90
26954;DHT22;14508;50.924;11.600;2023-01-28T07:11:36;1.90;99.90
26954;DHT22;14508;50.924;11.600;2023-01-28T07:14:04;1.90;99.90
26954;DHT22;14508;50.924;11.600;2023-01-28T07:16:32;1.90;99.90
26954;DHT22;14508;50.924;11.600;2023-01-28T07:19:01;1.80;99.90
26954;DHT22;14508;50.924;11.600;2023-01-28T07:21:29;1.80;99.90
26954;DHT22;14508;50.924;11.600;2023-01-28T07:23:58;1.80;99.90
26954;DHT22;14508;50.924;11.600;2023-01-28T07:26:26;1.90;99.90
26954;DHT22;14508;50.924;11.600;2023-01-28T07:28:53;1.90;99.90
26954;DHT22;14508;50.924;11.600;2023-01-28T07:31:21;1.80;99.90
26954;DHT22;14508;50.924;11.600;2023-01-28T07:33:49;1.90;99.90
26954;DHT22;14508;50.924;11.600;2023-01-28T07:36:18;1.90;99.90
26954;DHT22;14508;50.924;11.600;2023-01-28T07:38:46;1.90;99.90
26954;DHT22;14508;50.924;11.600;2023-01-28T07:41:14;1.90;99.90
26954;DHT22;14508;50.924;11.600;2023-01-28T07:43:42;1.90;99.90
26954;DHT22;14508;50.924;11.600;2023-01-28T07:46:11;2.00;99.90
26954;DHT22;14508;50.924;11.600;2023-01-28T07:48:39;1.90;99.90
26954;DHT22;14508;50.924;11.600;2023-01-28T07:51:07;1.90;99.90
26954;DHT22;14508;50.924;11.600;2023-01-28T07:53:36;1.90;99.90
26954;DHT22;14508;50.924;11.600;2023-01-28T07:56:05;1.90;99.90
26954;DHT22;14508;50.924;11.600;2023-01-28T07:58:32;2.00;99.90
26954;DHT22;14508;50.924;11.600;2023-01-28T08:01:01;2.00;99.90
26954;DHT22;14508;50.924;11.600;2023-01-28T08:03:29;2.00;99.90
26954;DHT22;14508;50.924;11.600;2023-01-28T08:05:57;2.00;99.90
26954;DHT22;14508;50.924;11.600;2023-01-28T08:08:25;2.10;99.90
26954;DHT22;14508;50.924;11.600;2023-01-28T08:10:55;2.10;99.90
26954;DHT22;14508;50.924;11.600;2023-01-28T08:13:23;2.10;99.90
26954;DHT22;14508;50.924;11.600;2023-01-28T08:15:54;2.10;99.90
26954;DHT22;14508;50.924;11.600;2023-01-28T08:18:22;2.00;99.90
26954;DHT22;14508;50.924;11.600;2023-01-28T08:20:54;2.00;99.90
26954;DHT22;14508;50.924;11.600;2023-01-28T08:23:22;2.00;99.90
26954;DHT22;14508;50.924;11.600;2023-01-28T08:25:52;2.00;99.90
26954;DHT22;14508;50.924;11.600;2023-01-28T08:28:21;2.00;99.90
26954;DHT22;14508;50.924;11.600;2023-01-28T08:30:49;2.10;99.90
26954;DHT22;14508;50.924;11.600;2023-01-28T08:33:18;2.10;99.90
26954;DHT22;14508;50.924;11.600;2023-01-28T08:35:46;2.10;99.90
26954;DHT22;14508;50.924;11.600;2023-01-28T08:38:14;2.10;99.90
26954;DHT22;14508;50.924;11.600;2023-01-28T08:40:43;2.20;99.90
26954;DHT22;14508;50.924;11.600;2023-01-28T08:43:11;2.20;99.90
26954;DHT22;14508;50.924;11.600;2023-01-28T08:45:40;2.20;99.90
26954;DHT22;14508;50.924;11.600;2023-01-28T08:48:11;2.10;99.90
26954;DHT22;14508;50.924;11.600;2023-01-28T08:50:41;2.10;99.90
26954;DHT22;14508;50.924;11.600;2023-01-28T08:53:15;2.10;99.90
26954;DHT22;14508;50.924;11.600;2023-01-28T08:55:43;2.00;99.90
26954;DHT22;14508;50.924;11.600;2023-01-28T08:58:12;2.00;99.90
26954;DHT22;14508;50.924;11.600;2023-01-28T09:00:43;2.10;99.90
26954;DHT22;14508;50.924;11.600;2023-01-28T09:03:11;2.10;99.90
26954;DHT22;14508;50.924;11.600;2023-01-28T09:05:39;2.10;99.90
26954;DHT22;14508;50.924;11.600;2023-01-28T09:08:08;2.10;99.90
26954;DHT22;14508;50.924;11.600;2023-01-28T09:10:36;2.20;99.90
26954;DHT22;14508;50.924;11.600;2023-01-28T09:13:05;2.20;99.90
26954;DHT22;14508;50.924;11.600;2023-01-28T09:15:34;2.20;99.90
26954;DHT22;14508;50.924;11.600;2023-01-28T09:18:03;2.30;99.90
26954;DHT22;14508;50.924;11.600;2023-01-28T09:20:32;2.20;99.90
26954;DHT22;14508;50.924;11.600;2023-01-28T09:23:01;2.30;99.90
26954;DHT22;14508;50.924;11.600;2023-01-28T09:25:29;2.30;99.90
26954;DHT22;14508;50.924;11.600;2023-01-28T09:27:57;2.30;99.90
26954;DHT22;14508;50.924;11.600;2023-01-28T09:30:25;2.30;99.90
26954;DHT22;14508;50.924;11.600;2023-01-28T09:32:54;2.20;99.90
26954;DHT22;14508;50.924;11.600;2023-01-28T09:35:26;2.20;99.90
26954;DHT22;14508;50.924;11.600;2023-01-28T09:37:58;2.30;99.90
26954;DHT22;14508;50.924;11.600;2023-01-28T09:40:32;2.40;99.90
26954;DHT22;14508;50.924;11.600;2023-01-28T09:43:15;2.30;99.90
26954;DHT22;14508;50.924;11.600;2023-01-28T09:45:47;2.30;99.90
26954;DHT22;14508;50.924;11.600;2023-01-28T09:48:18;2.30;99.90
26954;DHT22;14508;50.924;11.600;2023-01-28T09:50:51;2.40;99.90
26954;DHT22;14508;50.924;11.600;2023-01-28T09:53:21;2.50;99.90
26954;DHT22;14508;50.924;11.600;2023-01-28T09:55:54;2.60;99.90
26954;DHT22;14508;50.924;11.600;2023-01-28T09:58:22;2.60;99.90
26954;DHT22;14508;50.924;11.600;2023-01-28T10:00:54;2.60;99.90
26954;DHT22;14508;50.924;11.600;2023-01-28T10:03:42;2.70;99.90
26954;DHT22;14508;50.924;11.600;2023-01-28T10:06:21;2.60;99.90
26954;DHT22;14508;50.924;11.600;2023-01-28T10:09:10;2.70;99.90
26954;DHT22;14508;50.924;11.600;2023-01-28T10:12:00;2.70;99.90
26954;DHT22;14508;50.924;11.600;2023-01-28T10:14:40;2.70;99.90
26954;DHT22;14508;50.924;11.600;2023-01-28T10:17:15;2.70;99.90
26954;DHT22;14508;50.924;11.600;2023-01-28T10:19:47;2.60;99.90
26954;DHT22;14508;50.924;11.600;2023-01-28T10:22:22;2.70;99.90
26954;DHT22;14508;50.924;11.600;2023-01-28T10:24:52;2.70;99.90
26954;DHT22;14508;50.924;11.600;2023-01-28T10:27:27;2.70;99.90
26954;DHT22;14508;50.924;11.600;2023-01-28T10:29:58;2.80;99.90
26954;DHT22;14508;50.924;11.600;2023-01-28T10:32:29;2.80;99.90
26954;DHT22;14508;50.924;11.600;2023-01-28T10:34:57;2.90;99.90
26954;DHT22;14508;50.924;11.600;2023-01-28T10:37:32;2.90;99.90
26954;DHT22;14508;50.924;11.600;2023-01-28T10:40:01;2.90;99.90
26954;DHT22;14508;50.924;11.600;2023-01-28T10:42:33;2.90;99.90
26954;DHT22;14508;50.924;11.600;2023-01-28T10:45:07;2.90;99.90
26954;DHT22;14508;50.924;11.600;2023-01-28T10:47:45;3.00;99.90
26954;DHT22;14508;50.924;11.600;2023-01-28T10:50:17;2.90;99.90
26954;DHT22;14508;50.924;11.600;2023-01-28T10:52:53;3.00;99.90
26954;DHT22;14508;50.924;11.600;2023-01-28T10:55:22;2.90;99.90
26954;DHT22;14508;50.924;11.600;2023-01-28T10:57:51;2.90;99.90
26954;DHT22;14508;50.924;11.600;2023-01-28T11:00:25;2.90;99.90
26954;DHT22;14508;50.924;11.600;2023-01-28T11:02:54;2.90;99.90
26954;DHT22;14508;50.924;11.600;2023-01-28T11:05:25;2.80;99.90
26954;DHT22;14508;50.924;11.600;2023-01-28T11:08:09;2.80;99.90
26954;DHT22;14508;50.924;11.600;2023-01-28T11:10:39;2.90;99.90
26954;DHT22;14508;50.924;11.600;2023-01-28T11:13:16;3.00;99.90
26954;DHT22;14508;50.924;11.600;2023-01-28T11:15:48;3.10;99.90
26954;DHT22;14508;50.924;11.600;2023-01-28T11:18:19;3.10;99.90
26954;DHT22;14508;50.924;11.600;2023-01-28T11:20:50;3.10;99.90
26954;DHT22;14508;50.924;11.600;2023-01-28T11:23:22;3.10;99.90
26954;DHT22;14508;50.924;11.600;2023-01-28T11:26:01;3.00;99.90
26954;DHT22;14508;50.924;11.600;2023-01-28T11:28:30;2.90;99.90
26954;DHT22;14508;50.924;11.600;2023-01-28T11:31:00;2.80;99.90
26954;DHT22;14508;50.924;11.600;2023-01-28T11:33:37;2.80;99.90
26954;DHT22;14508;50.924;11.600;2023-01-28T11:36:12;2.80;99.90
26954;DHT22;14508;50.924;11.600;2023-01-28T11:38:53;2.90;99.90
26954;DHT22;14508;50.924;11.600;2023-01-28T11:41:26;2.90;99.90
26954;DHT22;14508;50.924;11.600;2023-01-28T11:43:55;2.90;99.80
26954;DHT22;14508;50.924;11.600;2023-01-28T11:46:42;2.90;99.00
26954;DHT22;14508;50.924;11.600;2023-01-28T11:49:20;2.90;99.70
26954;DHT22;14508;50.924;11.600;2023-01-28T11:51:58;2.90;99.90
26954;DHT22;14508;50.924;11.600;2023-01-28T11:54:43;2.80;98.60
26954;DHT22;14508;50.924;11.600;2023-01-28T11:57:20;2.80;99.40
26954;DHT22;14508;50.924;11.600;2023-01-28T11:59:58;2.90;99.30
26954;DHT22;14508;50.924;11.600;2023-01-28T12:02:42;2.90;99.50
26954;DHT22;14508;50.924;11.600;2023-01-28T12:05:41;2.80;98.70
26954;DHT22;14508;50.924;11.600;2023-01-28T12:08:16;2.80;99.90
26954;DHT22;14508;50.924;11.600;2023-01-28T12:10:58;2.90;99.90
26954;DHT22;14508;50.924;11.600;2023-01-28T12:13:40;2.90;99.90
26954;DHT22;14508;50.924;11.600;2023-01-28T12:16:27;2.90;99.90
26954;DHT22;14508;50.924;11.600;2023-01-28T12:19:23;3.00;99.90
26954;DHT22;14508;50.924;11.600;2023-01-28T12:22:06;3.00;99.90
26954;DHT22;14508;50.924;11.600;2023-01-28T12:24:52;2.90;99.90
26954;DHT22;14508;50.924;11.600;2023-01-28T12:27:32;2.90;99.90
26954;DHT22;14508;50.924;11.600;2023-01-28T12:30:10;2.90;99.90
26954;DHT22;14508;50.924;11.600;2023-01-28T12:32:55;2.70;99.90
26954;DHT22;14508;50.924;11.600;2023-01-28T12:35:39;2.70;99.90
26954;DHT22;14508;50.924;11.600;2023-01-28T12:38:14;2.50;99.90
26954;DHT22;14508;50.924;11.600;2023-01-28T12:40:54;2.40;99.90
26954;DHT22;14508;50.924;11.600;2023-01-28T12:43:43;2.40;99.90
26954;DHT22;14508;50.924;11.600;2023-01-28T12:46:21;2.40;99.90
26954;DHT22;14508;50.924;11.600;2023-01-28T12:48:53;2.50;99.90
26954;DHT22;14508;50.924;11.600;2023-01-28T12:51:27;2.60;99.90
26954;DHT22;14508;50.924;11.600;2023-01-28T12:54:00;2.60;99.90
26954;DHT22;14508;50.924;11.600;2023-01-28T12:56:32;2.70;99.90
26954;DHT22;14508;50.924;11.600;2023-01-28T12:59:07;2.70;99.90
26954;DHT22;14508;50.924;11.600;2023-01-28T13:01:41;2.80;99.90
26954;DHT22;14508;50.924;11.600;2023-01-28T13:04:15;2.80;99.90
26954;DHT22;14508;50.924;11.600;2023-01-28T13:06:47;2.90;99.90
26954;DHT22;14508;50.924;11.600;2023-01-28T13:09:18;2.80;98.20
26954;DHT22;14508;50.924;11.600;2023-01-28T13:11:49;2.80;98.90
26954;DHT22;14508;50.924;11.600;2023-01-28T13:14:22;2.80;98.80
26954;DHT22;14508;50.924;11.600;2023-01-28T13:16:51;2.70;99.30
26954;DHT22;14508;50.924;11.600;2023-01-28T13:19:24;2.80;99.20
26954;DHT22;14508;50.924;11.600;2023-01-28T13:22:10;2.80;98.70
26954;DHT22;14508;50.924;11.600;2023-01-28T13:24:38;2.70;98.60
26954;DHT22;14508;50.924;11.600;2023-01-28T13:27:12;2.70;99.40
26954;DHT22;14508;50.924;11.600;2023-01-28T13:29:47;2.70;98.80
26954;DHT22;14508;50.924;11.600;2023-01-28T13:32:28;2.60;98.60
26954;DHT22;14508;50.924;11.600;2023-01-28T13:34:58;2.60;99.30
26954;DHT22;14508;50.924;11.600;2023-01-28T13:37:30;2.60;99.20
26954;DHT22;14508;50.924;11.600;2023-01-28T13:40:03;2.60;99.60
26954;DHT22;14508;50.924;11.600;2023-01-28T13:42:33;2.50;99.10
26954;DHT22;14508;50.924;11.600;2023-01-28T13:45:21;2.50;99.60
26954;DHT22;14508;50.924;11.600;2023-01-28T13:47:51;2.50;99.90
26954;DHT22;14508;50.924;11.600;2023-01-28T13:50:22;2.50;99.90
26954;DHT22;14508;50.924;11.600;2023-01-28T13:52:57;2.50;99.90
26954;DHT22;14508;50.924;11.600;2023-01-28T13:55:30;2.40;99.90
26954;DHT22;14508;50.924;11.600;2023-01-28T13:58:35;2.40;99.90
26954;DHT22;14508;50.924;11.600;2023-01-28T14:01:46;2.30;99.90
26954;DHT22;14508;50.924;11.600;2023-01-28T14:04:53;2.30;99.90
26954;DHT22;14508;50.924;11.600;2023-01-28T14:07:44;2.40;99.90
26954;DHT22;14508;50.924;11.600;2023-01-28T14:10:32;2.40;99.90
26954;DHT22;14508;50.924;11.600;2023-01-28T14:16:18;2.40;99.90
26954;DHT22;14508;50.924;11.600;2023-01-28T14:18:50;2.40;99.90
26954;DHT22;14508;50.924;11.600;2023-01-28T14:21:20;2.30;99.90
26954;DHT22;14508;50.924;11.600;2023-01-28T14:23:50;2.40;99.90
26954;DHT22;14508;50.924;11.600;2023-01-28T14:26:27;2.30;99.90
26954;DHT22;14508;50.924;11.600;2023-01-28T14:29:08;2.40;99.90
26954;DHT22;14508;50.924;11.600;2023-01-28T14:31:39;2.30;99.90
26954;DHT22;14508;50.924;11.600;2023-01-28T14:34:16;2.30;99.90
26954;DHT22;14508;50.924;11.600;2023-01-28T14:36:47;2.30;99.90
26954;DHT22;14508;50.924;11.600;2023-01-28T14:39:17;2.30;99.90
26954;DHT22;14508;50.924;11.600;2023-01-28T14:41:47;2.30;99.90
26954;DHT22;14508;50.924;11.600;2023-01-28T14:44:25;2.30;99.90
26954;DHT22;14508;50.924;11.600;2023-01-28T14:47:14;2.30;99.90
26954;DHT22;14508;50.924;11.600;2023-01-28T14:49:58;2.20;99.90
26954;DHT22;14508;50.924;11.600;2023-01-28T14:52:41;2.20;99.90
26954;DHT22;14508;50.924;11.600;2023-01-28T14:55:22;2.00;99.90
26954;DHT22;14508;50.924;11.600;2023-01-28T14:57:55;1.90;99.90
26954;DHT22;14508;50.924;11.600;2023-01-28T15:00:25;1.80;99.90
26954;DHT22;14508;50.924;11.600;2023-01-28T15:02:53;1.80;99.90
26954;DHT22;14508;50.924;11.600;2023-01-28T15:05:24;1.80;99.90
26954;DHT22;14508;50.924;11.600;2023-01-28T15:07:55;1.80;99.90
26954;DHT22;14508;50.924;11.600;2023-01-28T15:10:26;1.90;99.90
26954;DHT22;14508;50.924;11.600;2023-01-28T15:13:03;1.90;99.90
26954;DHT22;14508;50.924;11.600;2023-01-28T15:15:34;2.00;99.90
26954;DHT22;14508;50.924;11.600;2023-01-28T15:18:05;2.00;99.90
26954;DHT22;14508;50.924;11.600;2023-01-28T15:20:35;2.00;99.90
26954;DHT22;14508;50.924;11.600;2023-01-28T15:23:06;2.00;99.90
26954;DHT22;14508;50.924;11.600;2023-01-28T15:25:34;2.00;99.90
26954;DHT22;14508;50.924;11.600;2023-01-28T15:28:02;2.00;99.90
26954;DHT22;14508;50.924;11.600;2023-01-28T15:30:31;2.00;99.90
26954;DHT22;14508;50.924;11.600;2023-01-28T15:33:02;2.00;99.90
26954;DHT22;14508;50.924;11.600;2023-01-28T15:35:30;1.90;99.90
26954;DHT22;14508;50.924;11.600;2023-01-28T15:38:01;1.90;99.90
26954;DHT22;14508;50.924;11.600;2023-01-28T15:40:40;1.90;99.90
26954;DHT22;14508;50.924;11.600;2023-01-28T15:43:16;1.90;99.90
26954;DHT22;14508;50.924;11.600;2023-01-28T15:45:45;1.90;99.90
26954;DHT22;14508;50.924;11.600;2023-01-28T15:48:14;1.80;99.90
26954;DHT22;14508;50.924;11.600;2023-01-28T15:50:46;1.80;99.90
26954;DHT22;14508;50.924;11.600;2023-01-28T15:53:15;1.80;99.90
26954;DHT22;14508;50.924;11.600;2023-01-28T15:55:43;1.80;99.90
26954;DHT22;14508;50.924;11.600;2023-01-28T15:58:16;1.80;99.90
26954;DHT22;14508;50.924;11.600;2023-01-28T16:00:46;1.80;99.90
26954;DHT22;14508;50.924;11.600;2023-01-28T16:03:19;1.70;99.90
26954;DHT22;14508;50.924;11.600;2023-01-28T16:05:56;1.60;99.90
26954;DHT22;14508;50.924;11.600;2023-01-28T16:08:31;1.50;99.90
26954;DHT22;14508;50.924;11.600;2023-01-28T16:11:00;1.60;99.90
26954;DHT22;14508;50.924;11.600;2023-01-28T16:13:31;1.60;99.90